createdAt,value
2019-05-20T11:20:27.558Z,212.00
2019-05-20T11:21:27.485Z,412.00
2019-05-20T11:22:27.496Z,560.00
2019-05-20T11:23:27.708Z,544.00
2019-05-20T11:24:27.542Z,668.00
2019-05-20T11:25:27.408Z,668.00
2019-05-20T11:26:28.143Z,648.00
2019-05-20T11:27:27.729Z,684.00
2019-05-20T11:28:27.674Z,584.00
2019-05-20T11:29:27.744Z,660.00
2019-05-20T11:30:27.648Z,572.00
2019-05-20T11:31:27.761Z,644.00
2019-05-20T11:32:27.774Z,596.00
2019-05-20T11:37:51.975Z,360.00
2019-05-20T11:38:51.793Z,444.00
2019-05-20T11:39:52.806Z,452.00
2019-05-20T11:40:51.985Z,440.00
2019-05-20T11:41:53.920Z,20.00
2019-05-20T11:42:51.897Z,432.00
2019-05-20T11:43:52.136Z,376.00
2019-05-20T11:44:53.246Z,100.00
2019-05-20T11:45:52.059Z,304.00
2019-05-20T11:46:51.923Z,96.00
2019-05-20T11:47:52.505Z,288.00
2019-05-20T11:48:51.818Z,316.00
2019-05-20T11:49:51.946Z,68.00
2019-05-20T11:50:52.290Z,36.00
2019-05-20T11:51:51.891Z,612.00
2019-05-20T11:52:51.639Z,2792.00
2019-05-20T11:53:51.595Z,2596.00
2019-05-20T11:54:52.291Z,2256.00
2019-05-20T11:55:52.095Z,2208.00
2019-05-20T11:56:51.663Z,1848.00
2019-05-20T11:57:51.609Z,1276.00
2019-05-20T11:58:51.718Z,4152.00
2019-05-20T11:59:51.528Z,3944.00
2019-05-20T12:00:51.648Z,4128.00
2019-05-20T12:01:51.626Z,4188.00
2019-05-20T12:02:51.531Z,2560.00
2019-05-20T12:03:51.550Z,4024.00
2019-05-20T12:04:51.487Z,3852.00
2019-05-20T12:05:51.591Z,4604.00
2019-05-20T12:06:51.771Z,4144.00
2019-05-20T12:07:51.597Z,3892.00
2019-05-20T12:08:51.471Z,3456.00
2019-05-20T12:09:51.594Z,2216.00
2019-05-20T12:10:51.517Z,2820.00
2019-05-20T12:11:51.802Z,16.00
2019-05-20T12:12:51.511Z,84.00
